sensor_id;sensor_type;location;lat;lon;timestamp;pressure;altitude;pressure_sealevel;temperature;humidity
14612;BME280;7392;52.078;11.650;2022-10-26T00:00:48;101043.16;;;8.72;100.00
14612;BME280;7392;52.078;11.650;2022-10-26T00:03:16;101043.13;;;8.69;100.00
14612;BME280;7392;52.078;11.650;2022-10-26T00:05:45;101038.69;;;8.65;100.00
14612;BME280;7392;52.078;11.650;2022-10-26T00:08:13;101037.78;;;8.63;100.00
14612;BME280;7392;52.078;11.650;2022-10-26T00:10:41;101040.41;;;8.60;100.00
14612;BME280;7392;52.078;11.650;2022-10-26T00:13:11;101040.34;;;8.57;100.00
14612;BME280;7392;52.078;11.650;2022-10-26T00:15:40;101042.97;;;8.54;100.00
14612;BME280;7392;52.078;11.650;2022-10-26T00:18:08;101040.28;;;8.49;100.00
14612;BME280;7392;52.078;11.650;2022-10-26T00:20:36;101042.03;;;8.46;100.00
14612;BME280;7392;52.078;11.650;2022-10-26T00:23:06;101039.31;;;8.42;100.00
14612;BME280;7392;52.078;11.650;2022-10-26T00:25:34;101048.97;;;8.40;100.00
14612;BME280;7392;52.078;11.650;2022-10-26T00:28:02;101047.16;;;8.36;100.00
14612;BME280;7392;52.078;11.650;2022-10-26T00:30:30;101055.06;;;8.35;100.00
14612;BME280;7392;52.078;11.650;2022-10-26T00:32:58;101040.91;;;8.31;100.00
14612;BME280;7392;52.078;11.650;2022-10-26T00:35:26;101054.09;;;8.28;100.00
14612;BME280;7392;52.078;11.650;2022-10-26T00:38:13;101049.63;;;8.22;100.00
14612;BME280;7392;52.078;11.650;2022-10-26T00:40:40;101055.78;;;8.20;100.00
14612;BME280;7392;52.078;11.650;2022-10-26T00:43:14;101056.63;;;8.17;100.00
14612;BME280;7392;52.078;11.650;2022-10-26T00:45:43;101049.53;;;8.13;100.00
14612;BME280;7392;52.078;11.650;2022-10-26T00:48:16;101040.66;;;8.08;100.00
14612;BME280;7392;52.078;11.650;2022-10-26T00:50:47;101057.34;;;8.05;100.00
14612;BME280;7392;52.078;11.650;2022-10-26T00:53:17;101068.81;;;8.03;100.00
14612;BME280;7392;52.078;11.650;2022-10-26T00:55:47;101055.50;;;7.98;100.00
14612;BME280;7392;52.078;11.650;2022-10-26T00:58:17;101059.84;;;7.93;100.00
14612;BME280;7392;52.078;11.650;2022-10-26T01:00:45;101059.78;;;7.89;100.00
14612;BME280;7392;52.078;11.650;2022-10-26T01:03:14;101062.38;;;7.85;100.00
14612;BME280;7392;52.078;11.650;2022-10-26T01:05:44;101071.16;;;7.83;100.00
14612;BME280;7392;52.078;11.650;2022-10-26T01:08:13;101074.63;;;7.79;100.00
14612;BME280;7392;52.078;11.650;2022-10-26T01:10:44;101076.34;;;7.77;100.00
14612;BME280;7392;52.078;11.650;2022-10-26T01:13:14;101074.53;;;7.73;100.00
14612;BME280;7392;52.078;11.650;2022-10-26T01:15:50;101069.22;;;7.70;100.00
14612;BME280;7392;52.078;11.650;2022-10-26T01:18:28;101066.50;;;7.66;100.00
14612;BME280;7392;52.078;11.650;2022-10-26T01:21:20;101068.25;;;7.64;100.00
14612;BME280;7392;52.078;11.650;2022-10-26T01:24:11;101063.81;;;7.62;100.00
14612;BME280;7392;52.078;11.650;2022-10-26T01:26:52;101057.59;;;7.60;100.00
14612;BME280;7392;52.078;11.650;2022-10-26T01:32:23;101061.94;;;7.56;100.00
14612;BME280;7392;52.078;11.650;2022-10-26T01:34:58;101063.66;;;7.53;100.00
14612;BME280;7392;52.078;11.650;2022-10-26T01:37:36;101054.81;;;7.49;100.00
14612;BME280;7392;52.078;11.650;2022-10-26T01:40:10;101059.19;;;7.47;100.00
14612;BME280;7392;52.078;11.650;2022-10-26T01:42:46;101046.75;;;7.43;100.00
14612;BME280;7392;52.078;11.650;2022-10-26T01:45:16;101051.13;;;7.39;100.00
14612;BME280;7392;52.078;11.650;2022-10-26T01:47:47;101050.22;;;7.37;100.00
14612;BME280;7392;52.078;11.650;2022-10-26T01:50:17;101055.47;;;7.36;100.00
14612;BME280;7392;52.078;11.650;2022-10-26T01:52:48;101053.69;;;7.33;100.00
14612;BME280;7392;52.078;11.650;2022-10-26T01:55:42;101056.28;;;7.30;100.00
14612;BME280;7392;52.078;11.650;2022-10-26T01:58:22;101045.63;;;7.27;100.00
14612;BME280;7392;52.078;11.650;2022-10-26T02:01:01;101050.88;;;7.24;100.00
14612;BME280;7392;52.078;11.650;2022-10-26T02:03:42;101043.81;;;7.21;100.00
14612;BME280;7392;52.078;11.650;2022-10-26T02:06:16;101047.28;;;7.20;100.00
14612;BME280;7392;52.078;11.650;2022-10-26T02:08:55;101044.63;;;7.19;100.00
14612;BME280;7392;52.078;11.650;2022-10-26T02:11:33;101041.06;;;7.17;100.00
14612;BME280;7392;52.078;11.650;2022-10-26T02:14:10;101047.22;;;7.16;100.00
14612;BME280;7392;52.078;11.650;2022-10-26T02:16:52;101047.22;;;7.14;100.00
14612;BME280;7392;52.078;11.650;2022-10-26T02:19:32;101048.06;;;7.13;100.00
14612;BME280;7392;52.078;11.650;2022-10-26T02:22:11;101044.47;;;7.09;100.00
14612;BME280;7392;52.078;11.650;2022-10-26T02:24:41;101047.16;;;7.11;100.00
14612;BME280;7392;52.078;11.650;2022-10-26T02:27:15;101051.53;;;7.09;100.00
14612;BME280;7392;52.078;11.650;2022-10-26T02:29:43;101040.94;;;7.07;100.00
14612;BME280;7392;52.078;11.650;2022-10-26T02:32:13;101047.91;;;7.05;100.00
14612;BME280;7392;52.078;11.650;2022-10-26T02:34:45;101046.19;;;7.06;100.00
14612;BME280;7392;52.078;11.650;2022-10-26T02:37:15;101037.34;;;7.05;100.00
14612;BME280;7392;52.078;11.650;2022-10-26T02:39:46;101041.75;;;7.05;100.00
14612;BME280;7392;52.078;11.650;2022-10-26T02:42:17;101032.06;;;7.05;100.00
14612;BME280;7392;52.078;11.650;2022-10-26T02:44:48;101035.59;;;7.04;100.00
14612;BME280;7392;52.078;11.650;2022-10-26T02:47:17;101028.50;;;7.02;100.00
14612;BME280;7392;52.078;11.650;2022-10-26T02:49:47;101033.78;;;7.02;100.00
14612;BME280;7392;52.078;11.650;2022-10-26T02:52:17;101027.59;;;7.00;100.00
14612;BME280;7392;52.078;11.650;2022-10-26T02:54:51;101023.19;;;7.00;100.00
14612;BME280;7392;52.078;11.650;2022-10-26T02:57:25;101009.94;;;6.97;100.00
14612;BME280;7392;52.078;11.650;2022-10-26T02:59:56;101020.50;;;6.96;100.00
14612;BME280;7392;52.078;11.650;2022-10-26T03:02:25;101018.69;;;6.95;100.00
14612;BME280;7392;52.078;11.650;2022-10-26T03:05:05;101021.31;;;6.93;100.00
14612;BME280;7392;52.078;11.650;2022-10-26T03:07:34;101020.41;;;6.91;100.00
14612;BME280;7392;52.078;11.650;2022-10-26T03:10:02;101010.69;;;6.90;100.00
14612;BME280;7392;52.078;11.650;2022-10-26T03:12:30;101012.47;;;6.91;100.00
14612;BME280;7392;52.078;11.650;2022-10-26T03:14:58;101014.19;;;6.87;100.00
14612;BME280;7392;52.078;11.650;2022-10-26T03:17:26;101013.28;;;6.85;100.00
14612;BME280;7392;52.078;11.650;2022-10-26T03:19:54;101013.25;;;6.84;100.00
14612;BME280;7392;52.078;11.650;2022-10-26T03:22:24;101014.97;;;6.82;100.00
14612;BME280;7392;52.078;11.650;2022-10-26T03:24:52;101014.94;;;6.80;100.00
14612;BME280;7392;52.078;11.650;2022-10-26T03:27:20;101017.56;;;6.79;100.00
14612;BME280;7392;52.078;11.650;2022-10-26T03:29:48;101013.13;;;6.78;100.00
14612;BME280;7392;52.078;11.650;2022-10-26T03:32:16;101009.56;;;6.76;100.00
14612;BME280;7392;52.078;11.650;2022-10-26T03:34:44;101007.78;;;6.73;100.00
14612;BME280;7392;52.078;11.650;2022-10-26T03:37:12;101006.88;;;6.72;100.00
14612;BME280;7392;52.078;11.650;2022-10-26T03:39:42;101004.19;;;6.71;100.00
14612;BME280;7392;52.078;11.650;2022-10-26T03:42:10;101002.44;;;6.70;100.00
14612;BME280;7392;52.078;11.650;2022-10-26T03:44:38;101005.06;;;6.68;100.00
14612;BME280;7392;52.078;11.650;2022-10-26T03:47:06;101002.38;;;6.67;100.00
14612;BME280;7392;52.078;11.650;2022-10-26T03:49:33;101005.00;;;6.65;100.00
14612;BME280;7392;52.078;11.650;2022-10-26T03:52:02;101004.97;;;6.64;100.00
14612;BME280;7392;52.078;11.650;2022-10-26T03:54:30;101005.84;;;6.63;100.00
14612;BME280;7392;52.078;11.650;2022-10-26T03:56:59;101003.97;;;6.59;100.00
14612;BME280;7392;52.078;11.650;2022-10-26T03:59:27;101001.28;;;6.55;100.00
14612;BME280;7392;52.078;11.650;2022-10-26T04:01:55;101001.22;;;6.51;100.00
14612;BME280;7392;52.078;11.650;2022-10-26T04:04:23;101002.91;;;6.49;100.00
14612;BME280;7392;52.078;11.650;2022-10-26T04:06:51;100998.44;;;6.45;100.00
14612;BME280;7392;52.078;11.650;2022-10-26T04:09:19;101001.03;;;6.42;100.00
14612;BME280;7392;52.078;11.650;2022-10-26T04:11:47;101008.06;;;6.41;100.00
14612;BME280;7392;52.078;11.650;2022-10-26T04:14:17;100999.25;;;6.39;100.00
14612;BME280;7392;52.078;11.650;2022-10-26T04:16:44;100998.28;;;6.37;100.00
14612;BME280;7392;52.078;11.650;2022-10-26T04:19:12;101002.69;;;6.36;100.00
14612;BME280;7392;52.078;11.650;2022-10-26T04:21:40;100995.66;;;6.35;100.00
14612;BME280;7392;52.078;11.650;2022-10-26T04:24:09;101007.06;;;6.34;100.00
14612;BME280;7392;52.078;11.650;2022-10-26T04:26:37;101007.06;;;6.34;100.00
14612;BME280;7392;52.078;11.650;2022-10-26T04:29:05;100998.25;;;6.34;100.00
14612;BME280;7392;52.078;11.650;2022-10-26T04:31:36;100993.88;;;6.34;100.00
14612;BME280;7392;52.078;11.650;2022-10-26T04:34:04;100994.78;;;6.36;100.00
14612;BME280;7392;52.078;11.650;2022-10-26T04:36:32;101000.06;;;6.36;100.00
14612;BME280;7392;52.078;11.650;2022-10-26T04:39:00;100993.06;;;6.39;100.00
14612;BME280;7392;52.078;11.650;2022-10-26T04:41:28;100999.25;;;6.39;100.00
14612;BME280;7392;52.078;11.650;2022-10-26T04:43:56;100995.72;;;6.40;100.00
14612;BME280;7392;52.078;11.650;2022-10-26T04:46:24;100989.59;;;6.41;100.00
14612;BME280;7392;52.078;11.650;2022-10-26T04:48:54;100987.03;;;6.44;100.00
14612;BME280;7392;52.078;11.650;2022-10-26T04:51:21;100988.00;;;6.49;100.00
14612;BME280;7392;52.078;11.650;2022-10-26T04:53:52;100995.13;;;6.55;100.00
14612;BME280;7392;52.078;11.650;2022-10-26T04:56:20;100989.03;;;6.58;100.00
14612;BME280;7392;52.078;11.650;2022-10-26T04:58:48;100988.16;;;6.59;100.00
14612;BME280;7392;52.078;11.650;2022-10-26T05:01:16;100991.63;;;6.56;100.00
14612;BME280;7392;52.078;11.650;2022-10-26T05:03:48;100981.13;;;6.58;100.00
14612;BME280;7392;52.078;11.650;2022-10-26T05:06:18;100987.31;;;6.60;100.00
14612;BME280;7392;52.078;11.650;2022-10-26T05:08:45;100988.22;;;6.62;100.00
14612;BME280;7392;52.078;11.650;2022-10-26T05:11:14;100995.28;;;6.63;100.00
14612;BME280;7392;52.078;11.650;2022-10-26T05:13:42;100994.41;;;6.64;100.00
14612;BME280;7392;52.078;11.650;2022-10-26T05:16:10;100990.91;;;6.65;100.00
14612;BME280;7392;52.078;11.650;2022-10-26T05:18:38;101000.59;;;6.66;100.00
14612;BME280;7392;52.078;11.650;2022-10-26T05:21:06;100983.88;;;6.65;100.00
14612;BME280;7392;52.078;11.650;2022-10-26T05:23:35;100988.28;;;6.65;100.00
14612;BME280;7392;52.078;11.650;2022-10-26T05:26:03;100987.38;;;6.66;100.00
14612;BME280;7392;52.078;11.650;2022-10-26T05:28:31;100999.69;;;6.64;100.00
14612;BME280;7392;52.078;11.650;2022-10-26T05:30:59;100993.56;;;6.65;100.00
14612;BME280;7392;52.078;11.650;2022-10-26T05:33:27;100999.72;;;6.65;100.00
14612;BME280;7392;52.078;11.650;2022-10-26T05:35:55;101000.59;;;6.66;100.00
14612;BME280;7392;52.078;11.650;2022-10-26T05:38:23;100990.97;;;6.68;100.00
14612;BME280;7392;52.078;11.650;2022-10-26T05:40:57;100988.31;;;6.69;100.00
14612;BME280;7392;52.078;11.650;2022-10-26T05:43:26;100994.53;;;6.70;100.00
14612;BME280;7392;52.078;11.650;2022-10-26T05:45:55;100992.78;;;6.72;100.00
14612;BME280;7392;52.078;11.650;2022-10-26T05:48:22;100989.28;;;6.71;100.00
14612;BME280;7392;52.078;11.650;2022-10-26T05:50:50;101006.91;;;6.74;100.00
14612;BME280;7392;52.078;11.650;2022-10-26T05:53:18;101006.94;;;6.76;100.00
14612;BME280;7392;52.078;11.650;2022-10-26T05:55:47;101000.81;;;6.77;100.00
14612;BME280;7392;52.078;11.650;2022-10-26T05:58:17;100993.75;;;6.77;100.00
14612;BME280;7392;52.078;11.650;2022-10-26T06:00:55;101007.03;;;6.80;100.00
14612;BME280;7392;52.078;11.650;2022-10-26T06:03:37;101013.19;;;6.81;100.00
14612;BME280;7392;52.078;11.650;2022-10-26T06:06:10;101014.13;;;6.84;100.00
14612;BME280;7392;52.078;11.650;2022-10-26T06:08:40;101021.19;;;6.85;100.00
14612;BME280;7392;52.078;11.650;2022-10-26T06:11:09;101015.91;;;6.85;100.00
14612;BME280;7392;52.078;11.650;2022-10-26T06:13:39;101015.03;;;6.86;100.00
14612;BME280;7392;52.078;11.650;2022-10-26T06:16:24;101015.97;;;6.88;100.00
14612;BME280;7392;52.078;11.650;2022-10-26T06:19:04;101011.56;;;6.89;100.00
14612;BME280;7392;52.078;11.650;2022-10-26T06:21:51;101018.63;;;6.91;100.00
14612;BME280;7392;52.078;11.650;2022-10-26T06:24:29;101017.75;;;6.91;100.00
14612;BME280;7392;52.078;11.650;2022-10-26T06:27:03;101016.94;;;6.93;100.00
14612;BME280;7392;52.078;11.650;2022-10-26T06:29:43;101014.28;;;6.95;100.00
14612;BME280;7392;52.078;11.650;2022-10-26T06:32:15;101029.31;;;6.98;100.00
14612;BME280;7392;52.078;11.650;2022-10-26T06:34:47;101020.53;;;6.99;100.00
14612;BME280;7392;52.078;11.650;2022-10-26T06:37:17;101022.31;;;7.00;100.00
14612;BME280;7392;52.078;11.650;2022-10-26T06:39:47;101030.22;;;7.00;100.00
14612;BME280;7392;52.078;11.650;2022-10-26T06:42:20;101029.41;;;7.02;100.00
14612;BME280;7392;52.078;11.650;2022-10-26T06:44:50;101026.78;;;7.04;100.00
14612;BME280;7392;52.078;11.650;2022-10-26T06:47:22;101026.78;;;7.05;100.00
14612;BME280;7392;52.078;11.650;2022-10-26T06:49:59;101023.31;;;7.08;100.00
14612;BME280;7392;52.078;11.650;2022-10-26T06:52:34;101026.88;;;7.10;100.00
14612;BME280;7392;52.078;11.650;2022-10-26T06:55:03;101017.25;;;7.14;100.00
14612;BME280;7392;52.078;11.650;2022-10-26T06:57:33;101030.50;;;7.17;100.00
14612;BME280;7392;52.078;11.650;2022-10-26T07:00:14;101026.13;;;7.19;100.00
14612;BME280;7392;52.078;11.650;2022-10-26T07:02:45;101030.59;;;7.21;100.00
14612;BME280;7392;52.078;11.650;2022-10-26T07:05:14;101029.78;;;7.27;100.00
14612;BME280;7392;52.078;11.650;2022-10-26T07:07:45;101027.19;;;7.30;100.00
14612;BME280;7392;52.078;11.650;2022-10-26T07:10:14;101026.41;;;7.36;100.00
14612;BME280;7392;52.078;11.650;2022-10-26T07:12:42;101035.28;;;7.41;100.00
14612;BME280;7392;52.078;11.650;2022-10-26T07:15:12;101038.00;;;7.45;100.00
14612;BME280;7392;52.078;11.650;2022-10-26T07:17:43;101038.09;;;7.50;100.00
14612;BME280;7392;52.078;11.650;2022-10-26T07:20:13;101036.41;;;7.55;100.00
14612;BME280;7392;52.078;11.650;2022-10-26T07:22:41;101034.72;;;7.60;100.00
14612;BME280;7392;52.078;11.650;2022-10-26T07:25:09;101030.38;;;7.65;100.00
14612;BME280;7392;52.078;11.650;2022-10-26T07:27:37;101036.63;;;7.71;100.00
14612;BME280;7392;52.078;11.650;2022-10-26T07:30:06;101029.66;;;7.76;100.00
14612;BME280;7392;52.078;11.650;2022-10-26T07:32:36;101039.44;;;7.83;100.00
14612;BME280;7392;52.078;11.650;2022-10-26T07:35:04;101035.13;;;7.90;100.00
14612;BME280;7392;52.078;11.650;2022-10-26T07:37:32;101039.63;;;7.97;100.00
14612;BME280;7392;52.078;11.650;2022-10-26T07:40:00;101041.47;;;8.04;100.00
14612;BME280;7392;52.078;11.650;2022-10-26T07:42:32;101045.97;;;8.13;100.00
14612;BME280;7392;52.078;11.650;2022-10-26T07:45:03;101039.91;;;8.21;100.00
14612;BME280;7392;52.078;11.650;2022-10-26T07:47:31;101038.22;;;8.28;100.00
14612;BME280;7392;52.078;11.650;2022-10-26T07:50:01;101035.69;;;8.36;100.00
14612;BME280;7392;52.078;11.650;2022-10-26T07:52:30;101041.03;;;8.42;100.00
14612;BME280;7392;52.078;11.650;2022-10-26T07:55:00;101041.19;;;8.51;100.00
14612;BME280;7392;52.078;11.650;2022-10-26T07:57:28;101043.91;;;8.59;100.00
14612;BME280;7392;52.078;11.650;2022-10-26T07:59:56;101038.69;;;8.65;100.00
14612;BME280;7392;52.078;11.650;2022-10-26T08:02:24;101039.66;;;8.73;100.00
14612;BME280;7392;52.078;11.650;2022-10-26T08:04:52;101034.41;;;8.81;100.00
14612;BME280;7392;52.078;11.650;2022-10-26T08:07:21;101038.03;;;8.91;100.00
14612;BME280;7392;52.078;11.650;2022-10-26T08:09:49;101052.28;;;9.01;100.00
14612;BME280;7392;52.078;11.650;2022-10-26T08:12:17;101045.28;;;9.10;100.00
14612;BME280;7392;52.078;11.650;2022-10-26T08:14:45;101048.03;;;9.20;100.00
14612;BME280;7392;52.078;11.650;2022-10-26T08:17:13;101057.81;;;9.28;100.00
14612;BME280;7392;52.078;11.650;2022-10-26T08:19:40;101057.88;;;9.38;100.00
14612;BME280;7392;52.078;11.650;2022-10-26T08:22:08;101062.38;;;9.49;100.00
14612;BME280;7392;52.078;11.650;2022-10-26T08:24:38;101053.63;;;9.63;100.00
14612;BME280;7392;52.078;11.650;2022-10-26T08:27:06;101057.25;;;9.72;100.00
14612;BME280;7392;52.078;11.650;2022-10-26T08:29:34;101048.47;;;9.84;100.00
14612;BME280;7392;52.078;11.650;2022-10-26T08:32:02;101048.53;;;9.95;100.00
14612;BME280;7392;52.078;11.650;2022-10-26T08:34:30;101054.78;;;10.08;100.00
14612;BME280;7392;52.078;11.650;2022-10-26T08:36:58;101049.53;;;10.22;100.00
14612;BME280;7392;52.078;11.650;2022-10-26T08:39:26;101049.63;;;10.36;100.00
14612;BME280;7392;52.078;11.650;2022-10-26T08:42:03;101051.44;;;10.51;100.00
14612;BME280;7392;52.078;11.650;2022-10-26T08:44:36;101049.69;;;10.65;100.00
14612;BME280;7392;52.078;11.650;2022-10-26T08:47:10;101045.31;;;10.78;100.00
14612;BME280;7392;52.078;11.650;2022-10-26T08:49:45;101050.63;;;10.89;100.00
14612;BME280;7392;52.078;11.650;2022-10-26T08:52:18;101050.63;;;10.99;100.00
14612;BME280;7392;52.078;11.650;2022-10-26T08:54:51;101049.78;;;11.14;100.00
14612;BME280;7392;52.078;11.650;2022-10-26T08:57:25;101038.25;;;11.26;100.00
14612;BME280;7392;52.078;11.650;2022-10-26T08:59:57;101042.69;;;11.39;100.00
14612;BME280;7392;52.078;11.650;2022-10-26T09:02:26;101039.09;;;11.56;100.00
14612;BME280;7392;52.078;11.650;2022-10-26T09:04:56;101043.50;;;11.71;100.00
14612;BME280;7392;52.078;11.650;2022-10-26T09:07:36;101034.63;;;11.86;100.00
14612;BME280;7392;52.078;11.650;2022-10-26T09:10:23;101039.94;;;11.96;100.00
14612;BME280;7392;52.078;11.650;2022-10-26T09:13:03;101033.69;;;12.07;100.00
14612;BME280;7392;52.078;11.650;2022-10-26T09:15:42;101032.75;;;12.19;100.00
14612;BME280;7392;52.078;11.650;2022-10-26T09:18:20;101040.69;;;12.31;100.00
14612;BME280;7392;52.078;11.650;2022-10-26T09:21:14;101036.19;;;12.41;100.00
14612;BME280;7392;52.078;11.650;2022-10-26T09:23:53;101045.91;;;12.51;100.00
14612;BME280;7392;52.078;11.650;2022-10-26T09:26:28;101036.97;;;12.63;100.00
14612;BME280;7392;52.078;11.650;2022-10-26T09:29:02;101030.69;;;12.71;100.00
14612;BME280;7392;52.078;11.650;2022-10-26T09:31:40;101036.84;;;12.81;100.00
14612;BME280;7392;52.078;11.650;2022-10-26T09:34:18;101043.91;;;12.90;100.00
14612;BME280;7392;52.078;11.650;2022-10-26T09:36:52;101042.94;;;13.02;100.00
14612;BME280;7392;52.078;11.650;2022-10-26T09:39:25;101041.97;;;13.10;100.00
14612;BME280;7392;52.078;11.650;2022-10-26T09:42:00;101046.34;;;13.19;100.00
14612;BME280;7392;52.078;11.650;2022-10-26T09:44:35;101045.38;;;13.25;100.00
14612;BME280;7392;52.078;11.650;2022-10-26T09:47:13;101040.00;;;13.31;100.00
14612;BME280;7392;52.078;11.650;2022-10-26T09:49:44;101042.69;;;13.36;100.00
14612;BME280;7392;52.078;11.650;2022-10-26T09:52:14;101039.03;;;13.44;100.00
14612;BME280;7392;52.078;11.650;2022-10-26T09:54:42;101041.59;;;13.54;100.00
14612;BME280;7392;52.078;11.650;2022-10-26T09:57:13;101041.56;;;13.61;100.00
14612;BME280;7392;52.078;11.650;2022-10-26T09:59:44;101043.25;;;13.69;100.00
14612;BME280;7392;52.078;11.650;2022-10-26T10:02:34;101052.94;;;13.79;100.00
14612;BME280;7392;52.078;11.650;2022-10-26T10:05:20;101044.81;;;13.88;100.00
14612;BME280;7392;52.078;11.650;2022-10-26T10:08:09;101045.63;;;13.95;100.00
14612;BME280;7392;52.078;11.650;2022-10-26T10:10:38;101050.00;;;14.00;100.00
14612;BME280;7392;52.078;11.650;2022-10-26T10:13:16;101049.09;;;14.05;100.00
14612;BME280;7392;52.078;11.650;2022-10-26T10:15:52;101046.31;;;14.11;100.00
14612;BME280;7392;52.078;11.650;2022-10-26T10:18:21;101050.81;;;14.09;100.00
14612;BME280;7392;52.078;11.650;2022-10-26T10:20:52;101050.91;;;14.01;99.87
14612;BME280;7392;52.078;11.650;2022-10-26T10:23:26;101049.22;;;13.92;100.00
14612;BME280;7392;52.078;11.650;2022-10-26T10:26:03;101062.66;;;13.83;100.00
14612;BME280;7392;52.078;11.650;2022-10-26T10:28:32;101064.53;;;13.73;100.00
14612;BME280;7392;52.078;11.650;2022-10-26T10:31:03;101066.34;;;13.71;100.00
14612;BME280;7392;52.078;11.650;2022-10-26T10:33:39;101059.28;;;13.65;100.00
14612;BME280;7392;52.078;11.650;2022-10-26T10:36:10;101052.25;;;13.60;100.00
14612;BME280;7392;52.078;11.650;2022-10-26T10:38:42;101055.81;;;13.57;100.00
14612;BME280;7392;52.078;11.650;2022-10-26T10:41:25;101048.63;;;13.65;100.00
14612;BME280;7392;52.078;11.650;2022-10-26T10:43:59;101048.47;;;13.79;100.00
14612;BME280;7392;52.078;11.650;2022-10-26T10:46:30;101045.66;;;13.92;100.00
14612;BME280;7392;52.078;11.650;2022-10-26T10:49:03;101046.41;;;14.05;100.00
14612;BME280;7392;52.078;11.650;2022-10-26T10:51:35;101041.94;;;14.07;100.00
14612;BME280;7392;52.078;11.650;2022-10-26T10:54:06;101050.81;;;14.07;100.00
14612;BME280;7392;52.078;11.650;2022-10-26T10:56:48;101047.25;;;14.10;100.00
14612;BME280;7392;52.078;11.650;2022-10-26T10:59:31;101042.63;;;14.21;100.00
14612;BME280;7392;52.078;11.650;2022-10-26T11:02:27;101050.53;;;14.32;100.00
14612;BME280;7392;52.078;11.650;2022-10-26T11:05:19;101050.34;;;14.46;100.00
14612;BME280;7392;52.078;11.650;2022-10-26T11:07:59;101051.97;;;14.61;100.00
14612;BME280;7392;52.078;11.650;2022-10-26T11:10:32;101048.91;;;14.87;100.00
14612;BME280;7392;52.078;11.650;2022-10-26T11:13:06;101053.00;;;15.09;100.00
14612;BME280;7392;52.078;11.650;2022-10-26T11:15:38;101050.03;;;15.28;100.00
14612;BME280;7392;52.078;11.650;2022-10-26T11:18:15;101047.03;;;15.48;100.00
14612;BME280;7392;52.078;11.650;2022-10-26T11:20:49;101052.06;;;15.65;99.75
14612;BME280;7392;52.078;11.650;2022-10-26T11:23:22;101049.25;;;15.73;98.34
14612;BME280;7392;52.078;11.650;2022-10-26T11:25:55;101050.00;;;15.81;98.11
14612;BME280;7392;52.078;11.650;2022-10-26T11:28:36;101048.22;;;15.80;96.86
14612;BME280;7392;52.078;11.650;2022-10-26T11:31:09;101051.81;;;15.80;96.38
14612;BME280;7392;52.078;11.650;2022-10-26T11:33:44;101046.34;;;15.85;96.52
14612;BME280;7392;52.078;11.650;2022-10-26T11:36:17;101032.81;;;15.93;96.46
14612;BME280;7392;52.078;11.650;2022-10-26T11:38:50;101039.88;;;15.97;96.10
14612;BME280;7392;52.078;11.650;2022-10-26T11:41:29;101050.50;;;16.01;96.15
14612;BME280;7392;52.078;11.650;2022-10-26T11:44:04;101045.97;;;16.05;95.78
14612;BME280;7392;52.078;11.650;2022-10-26T11:46:37;101052.13;;;16.10;95.92
14612;BME280;7392;52.078;11.650;2022-10-26T11:49:12;101055.66;;;16.11;94.71
14612;BME280;7392;52.078;11.650;2022-10-26T11:51:44;101057.44;;;16.12;94.82
14612;BME280;7392;52.078;11.650;2022-10-26T11:54:17;101055.47;;;16.21;95.22
14612;BME280;7392;52.078;11.650;2022-10-26T11:56:53;101052.44;;;16.38;95.51
14612;BME280;7392;52.078;11.650;2022-10-26T11:59:24;101046.63;;;16.58;95.21
14612;BME280;7392;52.078;11.650;2022-10-26T12:02:01;101050.72;;;16.75;93.59
14612;BME280;7392;52.078;11.650;2022-10-26T12:04:35;101055.69;;;16.93;92.97
14612;BME280;7392;52.078;11.650;2022-10-26T12:07:10;101048.97;;;17.13;92.62
14612;BME280;7392;52.078;11.650;2022-10-26T12:09:41;101043.31;;;17.25;90.59
14612;BME280;7392;52.078;11.650;2022-10-26T12:12:16;101040.34;;;17.36;89.65
14612;BME280;7392;52.078;11.650;2022-10-26T12:14:52;101041.63;;;17.55;89.85
14612;BME280;7392;52.078;11.650;2022-10-26T12:17:25;101043.78;;;17.75;89.42
14612;BME280;7392;52.078;11.650;2022-10-26T12:20:04;101047.81;;;17.93;87.62
14612;BME280;7392;52.078;11.650;2022-10-26T12:22:36;101048.31;;;18.06;86.62
14612;BME280;7392;52.078;11.650;2022-10-26T12:25:20;101049.53;;;18.26;86.93
14612;BME280;7392;52.078;11.650;2022-10-26T12:27:51;101055.31;;;18.43;85.05
14612;BME280;7392;52.078;11.650;2022-10-26T12:30:28;101046.84;;;18.57;84.59
14612;BME280;7392;52.078;11.650;2022-10-26T12:32:58;101051.97;;;18.65;84.91
14612;BME280;7392;52.078;11.650;2022-10-26T12:35:42;101050.78;;;18.74;84.39
14612;BME280;7392;52.078;11.650;2022-10-26T12:41:21;101054.47;;;18.71;82.84
14612;BME280;7392;52.078;11.650;2022-10-26T12:43:49;101057.97;;;18.73;82.69
14612;BME280;7392;52.078;11.650;2022-10-26T12:52:27;101050.34;;;18.89;80.23
14612;BME280;7392;52.078;11.650;2022-10-26T12:55:12;101056.06;;;18.77;79.85
14612;BME280;7392;52.078;11.650;2022-10-26T12:57:48;101053.63;;;18.69;80.63
14612;BME280;7392;52.078;11.650;2022-10-26T13:00:22;101051.38;;;18.85;81.22
14612;BME280;7392;52.078;11.650;2022-10-26T13:03:01;101048.31;;;18.96;81.73
14612;BME280;7392;52.078;11.650;2022-10-26T13:08:47;101062.59;;;18.69;80.27
14612;BME280;7392;52.078;11.650;2022-10-26T13:11:28;101048.66;;;18.57;81.42
14612;BME280;7392;52.078;11.650;2022-10-26T13:13:59;101048.72;;;18.54;82.67
14612;BME280;7392;52.078;11.650;2022-10-26T13:16:29;101044.31;;;18.51;82.85
14612;BME280;7392;52.078;11.650;2022-10-26T13:18:58;101047.06;;;18.49;83.04
14612;BME280;7392;52.078;11.650;2022-10-26T13:21:27;101060.66;;;18.45;82.35
14612;BME280;7392;52.078;11.650;2022-10-26T13:23:58;101059.94;;;18.38;83.00
14612;BME280;7392;52.078;11.650;2022-10-26T13:26:32;101057.25;;;18.38;83.65
14612;BME280;7392;52.078;11.650;2022-10-26T13:29:28;101052.75;;;18.39;84.39